sensor_id;sensor_type;location;lat;lon;timestamp;P1;durP1;ratioP1;P2;durP2;ratioP2
77872;SDS011;67068;52.116;4.440;2023-06-24T00:01:56;6.60;;;2.30;;
77872;SDS011;67068;52.116;4.440;2023-06-24T00:04:22;6.80;;;2.10;;
77872;SDS011;67068;52.116;4.440;2023-06-24T00:06:48;6.28;;;2.22;;
77872;SDS011;67068;52.116;4.440;2023-06-24T00:09:13;6.32;;;2.22;;
77872;SDS011;67068;52.116;4.440;2023-06-24T00:11:38;6.70;;;2.37;;
77872;SDS011;67068;52.116;4.440;2023-06-24T00:14:04;6.50;;;2.10;;
77872;SDS011;67068;52.116;4.440;2023-06-24T00:16:30;6.00;;;2.03;;
77872;SDS011;67068;52.116;4.440;2023-06-24T00:18:55;5.57;;;2.07;;
77872;SDS011;67068;52.116;4.440;2023-06-24T00:21:25;6.65;;;2.10;;
77872;SDS011;67068;52.116;4.440;2023-06-24T00:23:55;7.07;;;2.20;;
77872;SDS011;67068;52.116;4.440;2023-06-24T00:26:20;6.57;;;2.08;;
77872;SDS011;67068;52.116;4.440;2023-06-24T00:28:46;6.93;;;2.20;;
77872;SDS011;67068;52.116;4.440;2023-06-24T00:31:11;6.50;;;2.00;;
77872;SDS011;67068;52.116;4.440;2023-06-24T00:33:36;6.50;;;2.17;;
77872;SDS011;67068;52.116;4.440;2023-06-24T00:36:02;6.57;;;2.17;;
77872;SDS011;67068;52.116;4.440;2023-06-24T00:38:27;5.80;;;2.05;;
77872;SDS011;67068;52.116;4.440;2023-06-24T00:40:57;6.65;;;2.20;;
77872;SDS011;67068;52.116;4.440;2023-06-24T00:43:22;5.85;;;2.00;;
77872;SDS011;67068;52.116;4.440;2023-06-24T00:45:48;5.57;;;1.88;;
77872;SDS011;67068;52.116;4.440;2023-06-24T00:48:13;6.38;;;1.73;;
77872;SDS011;67068;52.116;4.440;2023-06-24T00:50:39;6.45;;;2.00;;
77872;SDS011;67068;52.116;4.440;2023-06-24T00:53:07;5.75;;;2.00;;
77872;SDS011;67068;52.116;4.440;2023-06-24T00:55:32;5.70;;;1.83;;
77872;SDS011;67068;52.116;4.440;2023-06-24T00:57:57;5.70;;;2.10;;
77872;SDS011;67068;52.116;4.440;2023-06-24T01:00:24;5.97;;;2.13;;
77872;SDS011;67068;52.116;4.440;2023-06-24T01:02:51;6.57;;;2.17;;
77872;SDS011;67068;52.116;4.440;2023-06-24T01:05:16;7.57;;;2.28;;
77872;SDS011;67068;52.116;4.440;2023-06-24T01:07:42;6.85;;;2.08;;
77872;SDS011;67068;52.116;4.440;2023-06-24T01:10:08;7.05;;;2.30;;
77872;SDS011;67068;52.116;4.440;2023-06-24T01:12:34;5.38;;;1.85;;
77872;SDS011;67068;52.116;4.440;2023-06-24T01:15:00;5.57;;;1.75;;
77872;SDS011;67068;52.116;4.440;2023-06-24T01:30:17;5.85;;;2.00;;
77872;SDS011;67068;52.116;4.440;2023-06-24T01:32:49;8.10;;;2.35;;
77872;SDS011;67068;52.116;4.440;2023-06-24T01:35:16;5.47;;;1.83;;
77872;SDS011;67068;52.116;4.440;2023-06-24T01:37:43;5.85;;;2.15;;
77872;SDS011;67068;52.116;4.440;2023-06-24T01:42:44;6.97;;;2.10;;
77872;SDS011;67068;52.116;4.440;2023-06-24T01:45:12;5.05;;;1.63;;
77872;SDS011;67068;52.116;4.440;2023-06-24T01:47:38;6.00;;;1.90;;
77872;SDS011;67068;52.116;4.440;2023-06-24T01:50:05;6.20;;;2.00;;
77872;SDS011;67068;52.116;4.440;2023-06-24T01:52:31;6.15;;;1.85;;
77872;SDS011;67068;52.116;4.440;2023-06-24T01:54:58;6.30;;;1.85;;
77872;SDS011;67068;52.116;4.440;2023-06-24T01:57:23;6.47;;;2.03;;
77872;SDS011;67068;52.116;4.440;2023-06-24T01:59:49;7.53;;;1.90;;
77872;SDS011;67068;52.116;4.440;2023-06-24T02:02:16;5.15;;;1.65;;
77872;SDS011;67068;52.116;4.440;2023-06-24T02:04:45;6.90;;;1.92;;
77872;SDS011;67068;52.116;4.440;2023-06-24T02:07:10;4.22;;;1.73;;
77872;SDS011;67068;52.116;4.440;2023-06-24T02:09:36;5.55;;;1.80;;
77872;SDS011;67068;52.116;4.440;2023-06-24T02:12:03;7.00;;;2.00;;
77872;SDS011;67068;52.116;4.440;2023-06-24T02:14:29;4.97;;;1.60;;
77872;SDS011;67068;52.116;4.440;2023-06-24T02:16:55;6.10;;;1.90;;
77872;SDS011;67068;52.116;4.440;2023-06-24T02:19:25;5.50;;;1.85;;
77872;SDS011;67068;52.116;4.440;2023-06-24T02:21:52;5.65;;;1.92;;
77872;SDS011;67068;52.116;4.440;2023-06-24T02:24:18;6.22;;;2.00;;
77872;SDS011;67068;52.116;4.440;2023-06-24T02:26:44;6.03;;;1.77;;
77872;SDS011;67068;52.116;4.440;2023-06-24T02:29:10;5.70;;;1.77;;
77872;SDS011;67068;52.116;4.440;2023-06-24T02:31:35;6.00;;;1.95;;
77872;SDS011;67068;52.116;4.440;2023-06-24T02:34:00;5.77;;;2.13;;
77872;SDS011;67068;52.116;4.440;2023-06-24T02:36:26;6.10;;;1.90;;
77872;SDS011;67068;52.116;4.440;2023-06-24T02:38:51;6.13;;;1.97;;
77872;SDS011;67068;52.116;4.440;2023-06-24T02:41:16;6.07;;;2.00;;
77872;SDS011;67068;52.116;4.440;2023-06-24T02:43:41;5.97;;;2.10;;
77872;SDS011;67068;52.116;4.440;2023-06-24T02:46:07;5.83;;;1.73;;
77872;SDS011;67068;52.116;4.440;2023-06-24T02:48:32;5.63;;;1.73;;
77872;SDS011;67068;52.116;4.440;2023-06-24T02:50:59;5.68;;;1.83;;
77872;SDS011;67068;52.116;4.440;2023-06-24T02:53:25;5.70;;;1.80;;
77872;SDS011;67068;52.116;4.440;2023-06-24T02:55:52;6.40;;;1.90;;
77872;SDS011;67068;52.116;4.440;2023-06-24T02:58:19;6.68;;;1.92;;
77872;SDS011;67068;52.116;4.440;2023-06-24T03:00:44;6.25;;;2.00;;
77872;SDS011;67068;52.116;4.440;2023-06-24T03:03:10;5.13;;;1.70;;
77872;SDS011;67068;52.116;4.440;2023-06-24T03:05:35;5.45;;;1.88;;
77872;SDS011;67068;52.116;4.440;2023-06-24T03:08:01;5.85;;;1.63;;
77872;SDS011;67068;52.116;4.440;2023-06-24T03:10:28;5.10;;;1.58;;
77872;SDS011;67068;52.116;4.440;2023-06-24T03:12:54;6.47;;;1.75;;
77872;SDS011;67068;52.116;4.440;2023-06-24T03:15:19;5.13;;;1.70;;
77872;SDS011;67068;52.116;4.440;2023-06-24T03:17:44;6.00;;;1.90;;
77872;SDS011;67068;52.116;4.440;2023-06-24T03:20:10;5.75;;;1.98;;
77872;SDS011;67068;52.116;4.440;2023-06-24T03:22:35;6.45;;;1.98;;
77872;SDS011;67068;52.116;4.440;2023-06-24T03:25:01;5.50;;;1.85;;
77872;SDS011;67068;52.116;4.440;2023-06-24T03:27:26;5.33;;;1.70;;
77872;SDS011;67068;52.116;4.440;2023-06-24T03:29:51;5.63;;;1.63;;
77872;SDS011;67068;52.116;4.440;2023-06-24T03:32:16;5.63;;;1.77;;
77872;SDS011;67068;52.116;4.440;2023-06-24T03:34:42;5.77;;;1.60;;
77872;SDS011;67068;52.116;4.440;2023-06-24T03:37:07;6.73;;;1.83;;
77872;SDS011;67068;52.116;4.440;2023-06-24T03:39:32;5.60;;;1.83;;
77872;SDS011;67068;52.116;4.440;2023-06-24T03:41:57;6.33;;;1.87;;
77872;SDS011;67068;52.116;4.440;2023-06-24T03:44:23;6.65;;;2.17;;
77872;SDS011;67068;52.116;4.440;2023-06-24T03:46:48;5.90;;;1.60;;
77872;SDS011;67068;52.116;4.440;2023-06-24T03:49:13;6.10;;;1.90;;
77872;SDS011;67068;52.116;4.440;2023-06-24T03:51:38;5.60;;;1.77;;
77872;SDS011;67068;52.116;4.440;2023-06-24T03:54:04;7.23;;;1.87;;
77872;SDS011;67068;52.116;4.440;2023-06-24T03:56:29;6.43;;;1.87;;
77872;SDS011;67068;52.116;4.440;2023-06-24T03:58:54;5.47;;;1.57;;
77872;SDS011;67068;52.116;4.440;2023-06-24T04:01:19;5.80;;;1.70;;
77872;SDS011;67068;52.116;4.440;2023-06-24T04:03:45;6.47;;;1.90;;
77872;SDS011;67068;52.116;4.440;2023-06-24T04:06:10;5.00;;;1.70;;
77872;SDS011;67068;52.116;4.440;2023-06-24T04:08:35;5.43;;;1.80;;
77872;SDS011;67068;52.116;4.440;2023-06-24T04:11:04;6.63;;;1.98;;
77872;SDS011;67068;52.116;4.440;2023-06-24T04:13:31;4.88;;;1.70;;
77872;SDS011;67068;52.116;4.440;2023-06-24T04:15:56;5.70;;;1.83;;
77872;SDS011;67068;52.116;4.440;2023-06-24T04:18:21;6.03;;;1.80;;
77872;SDS011;67068;52.116;4.440;2023-06-24T04:20:47;5.50;;;1.80;;
77872;SDS011;67068;52.116;4.440;2023-06-24T04:23:12;5.70;;;1.50;;
77872;SDS011;67068;52.116;4.440;2023-06-24T04:25:39;4.78;;;1.60;;
77872;SDS011;67068;52.116;4.440;2023-06-24T04:28:04;6.05;;;1.63;;
77872;SDS011;67068;52.116;4.440;2023-06-24T04:30:30;6.13;;;1.83;;
77872;SDS011;67068;52.116;4.440;2023-06-24T04:32:55;6.55;;;1.85;;
77872;SDS011;67068;52.116;4.440;2023-06-24T04:35:20;5.57;;;1.63;;
77872;SDS011;67068;52.116;4.440;2023-06-24T04:37:46;5.53;;;1.63;;
77872;SDS011;67068;52.116;4.440;2023-06-24T04:40:11;6.47;;;1.80;;
77872;SDS011;67068;52.116;4.440;2023-06-24T04:42:37;6.40;;;1.92;;
77872;SDS011;67068;52.116;4.440;2023-06-24T04:45:02;5.33;;;1.53;;
77872;SDS011;67068;52.116;4.440;2023-06-24T04:47:30;6.22;;;1.90;;
77872;SDS011;67068;52.116;4.440;2023-06-24T04:49:56;6.70;;;1.80;;
77872;SDS011;67068;52.116;4.440;2023-06-24T04:52:22;6.90;;;1.90;;
77872;SDS011;67068;52.116;4.440;2023-06-24T04:54:48;5.72;;;1.73;;
77872;SDS011;67068;52.116;4.440;2023-06-24T04:57:22;5.97;;;2.00;;
77872;SDS011;67068;52.116;4.440;2023-06-24T04:59:48;5.82;;;1.98;;
77872;SDS011;67068;52.116;4.440;2023-06-24T05:02:13;5.03;;;1.70;;
77872;SDS011;67068;52.116;4.440;2023-06-24T05:04:38;4.63;;;1.57;;
77872;SDS011;67068;52.116;4.440;2023-06-24T05:07:03;6.20;;;1.70;;
77872;SDS011;67068;52.116;4.440;2023-06-24T05:09:28;6.23;;;1.93;;
77872;SDS011;67068;52.116;4.440;2023-06-24T05:11:54;5.37;;;1.60;;
77872;SDS011;67068;52.116;4.440;2023-06-24T05:14:19;5.70;;;1.93;;
77872;SDS011;67068;52.116;4.440;2023-06-24T05:16:44;5.60;;;1.80;;
77872;SDS011;67068;52.116;4.440;2023-06-24T05:19:10;5.05;;;1.75;;
77872;SDS011;67068;52.116;4.440;2023-06-24T05:21:35;6.53;;;1.80;;
77872;SDS011;67068;52.116;4.440;2023-06-24T05:24:00;6.70;;;2.10;;
77872;SDS011;67068;52.116;4.440;2023-06-24T05:26:25;5.50;;;1.70;;
77872;SDS011;67068;52.116;4.440;2023-06-24T05:28:51;5.57;;;1.83;;
77872;SDS011;67068;52.116;4.440;2023-06-24T05:31:16;7.23;;;1.70;;
77872;SDS011;67068;52.116;4.440;2023-06-24T05:33:41;5.53;;;1.83;;
77872;SDS011;67068;52.116;4.440;2023-06-24T05:36:06;5.00;;;1.63;;
77872;SDS011;67068;52.116;4.440;2023-06-24T05:38:32;6.70;;;1.87;;
77872;SDS011;67068;52.116;4.440;2023-06-24T05:40:57;5.90;;;1.90;;
77872;SDS011;67068;52.116;4.440;2023-06-24T05:43:22;6.10;;;1.73;;
77872;SDS011;67068;52.116;4.440;2023-06-24T05:45:47;4.93;;;1.70;;
77872;SDS011;67068;52.116;4.440;2023-06-24T05:48:12;4.70;;;1.60;;
77872;SDS011;67068;52.116;4.440;2023-06-24T05:50:39;6.00;;;1.88;;
77872;SDS011;67068;52.116;4.440;2023-06-24T05:53:04;6.03;;;1.80;;
77872;SDS011;67068;52.116;4.440;2023-06-24T05:55:29;6.07;;;1.90;;
77872;SDS011;67068;52.116;4.440;2023-06-24T05:57:55;4.73;;;1.60;;
77872;SDS011;67068;52.116;4.440;2023-06-24T06:00:20;6.00;;;1.97;;
77872;SDS011;67068;52.116;4.440;2023-06-24T06:02:45;5.53;;;1.80;;
77872;SDS011;67068;52.116;4.440;2023-06-24T06:05:11;5.32;;;1.60;;
77872;SDS011;67068;52.116;4.440;2023-06-24T06:07:36;6.50;;;1.90;;
77872;SDS011;67068;52.116;4.440;2023-06-24T06:10:04;5.13;;;1.63;;
77872;SDS011;67068;52.116;4.440;2023-06-24T06:12:29;6.32;;;1.83;;
77872;SDS011;67068;52.116;4.440;2023-06-24T06:14:54;5.63;;;1.77;;
77872;SDS011;67068;52.116;4.440;2023-06-24T06:17:19;6.33;;;1.80;;
77872;SDS011;67068;52.116;4.440;2023-06-24T06:19:45;6.23;;;2.10;;
77872;SDS011;67068;52.116;4.440;2023-06-24T06:22:11;4.32;;;1.58;;
77872;SDS011;67068;52.116;4.440;2023-06-24T06:24:37;7.05;;;1.70;;
77872;SDS011;67068;52.116;4.440;2023-06-24T06:27:03;5.22;;;1.70;;
77872;SDS011;67068;52.116;4.440;2023-06-24T06:29:28;7.43;;;2.30;;
77872;SDS011;67068;52.116;4.440;2023-06-24T06:31:53;9.97;;;2.97;;
77872;SDS011;67068;52.116;4.440;2023-06-24T06:34:20;9.02;;;3.28;;
77872;SDS011;67068;52.116;4.440;2023-06-24T06:36:45;9.30;;;3.33;;
77872;SDS011;67068;52.116;4.440;2023-06-24T06:39:10;9.67;;;3.40;;
77872;SDS011;67068;52.116;4.440;2023-06-24T06:41:35;11.93;;;3.00;;
77872;SDS011;67068;52.116;4.440;2023-06-24T06:44:01;9.17;;;3.23;;
77872;SDS011;67068;52.116;4.440;2023-06-24T06:46:26;9.73;;;3.30;;
77872;SDS011;67068;52.116;4.440;2023-06-24T06:48:51;9.70;;;3.40;;
77872;SDS011;67068;52.116;4.440;2023-06-24T06:51:16;10.43;;;3.50;;
77872;SDS011;67068;52.116;4.440;2023-06-24T06:53:43;10.15;;;3.17;;
77872;SDS011;67068;52.116;4.440;2023-06-24T06:56:08;10.90;;;3.37;;
77872;SDS011;67068;52.116;4.440;2023-06-24T06:58:34;9.63;;;3.30;;
77872;SDS011;67068;52.116;4.440;2023-06-24T07:00:59;10.53;;;3.50;;
77872;SDS011;67068;52.116;4.440;2023-06-24T07:03:26;11.13;;;3.47;;
77872;SDS011;67068;52.116;4.440;2023-06-24T07:05:52;9.15;;;3.30;;
77872;SDS011;67068;52.116;4.440;2023-06-24T07:08:18;9.33;;;2.80;;
77872;SDS011;67068;52.116;4.440;2023-06-24T07:10:43;8.63;;;3.10;;
77872;SDS011;67068;52.116;4.440;2023-06-24T07:13:08;8.57;;;2.93;;
77872;SDS011;67068;52.116;4.440;2023-06-24T07:15:33;8.83;;;2.83;;
77872;SDS011;67068;52.116;4.440;2023-06-24T07:17:59;9.07;;;2.90;;
77872;SDS011;67068;52.116;4.440;2023-06-24T07:20:24;8.00;;;3.00;;
77872;SDS011;67068;52.116;4.440;2023-06-24T07:22:49;9.10;;;3.53;;
77872;SDS011;67068;52.116;4.440;2023-06-24T07:25:14;10.57;;;3.70;;
77872;SDS011;67068;52.116;4.440;2023-06-24T07:27:40;10.60;;;3.00;;
77872;SDS011;67068;52.116;4.440;2023-06-24T07:30:05;11.37;;;3.77;;
77872;SDS011;67068;52.116;4.440;2023-06-24T07:32:30;9.85;;;3.40;;
77872;SDS011;67068;52.116;4.440;2023-06-24T07:34:56;11.67;;;3.73;;
77872;SDS011;67068;52.116;4.440;2023-06-24T07:37:21;9.98;;;3.70;;
77872;SDS011;67068;52.116;4.440;2023-06-24T07:39:47;11.70;;;4.07;;
77872;SDS011;67068;52.116;4.440;2023-06-24T07:42:12;10.73;;;3.57;;
77872;SDS011;67068;52.116;4.440;2023-06-24T07:44:39;11.18;;;3.80;;
77872;SDS011;67068;52.116;4.440;2023-06-24T07:47:05;9.40;;;3.30;;
77872;SDS011;67068;52.116;4.440;2023-06-24T07:49:31;12.43;;;3.97;;
77872;SDS011;67068;52.116;4.440;2023-06-24T07:51:56;9.87;;;3.27;;
77872;SDS011;67068;52.116;4.440;2023-06-24T07:54:21;10.83;;;3.83;;
77872;SDS011;67068;52.116;4.440;2023-06-24T07:56:47;10.77;;;3.43;;
77872;SDS011;67068;52.116;4.440;2023-06-24T07:59:12;9.27;;;3.37;;
77872;SDS011;67068;52.116;4.440;2023-06-24T08:01:37;11.00;;;4.00;;
77872;SDS011;67068;52.116;4.440;2023-06-24T08:04:02;10.17;;;3.80;;
77872;SDS011;67068;52.116;4.440;2023-06-24T08:06:28;9.90;;;3.83;;
77872;SDS011;67068;52.116;4.440;2023-06-24T08:08:53;10.75;;;4.05;;
77872;SDS011;67068;52.116;4.440;2023-06-24T08:11:18;12.47;;;3.73;;
77872;SDS011;67068;52.116;4.440;2023-06-24T08:13:43;10.33;;;3.37;;
77872;SDS011;67068;52.116;4.440;2023-06-24T08:16:09;10.77;;;3.80;;
77872;SDS011;67068;52.116;4.440;2023-06-24T08:18:34;10.80;;;3.87;;
77872;SDS011;67068;52.116;4.440;2023-06-24T08:20:59;10.83;;;3.50;;
77872;SDS011;67068;52.116;4.440;2023-06-24T08:23:24;10.63;;;3.70;;
77872;SDS011;67068;52.116;4.440;2023-06-24T08:25:50;9.55;;;3.67;;
77872;SDS011;67068;52.116;4.440;2023-06-24T08:28:15;11.33;;;3.63;;
77872;SDS011;67068;52.116;4.440;2023-06-24T08:30:40;11.17;;;3.50;;
77872;SDS011;67068;52.116;4.440;2023-06-24T08:33:05;11.43;;;3.73;;
77872;SDS011;67068;52.116;4.440;2023-06-24T08:35:30;9.43;;;3.53;;
77872;SDS011;67068;52.116;4.440;2023-06-24T08:37:56;11.30;;;4.03;;
77872;SDS011;67068;52.116;4.440;2023-06-24T08:40:21;10.73;;;3.17;;
77872;SDS011;67068;52.116;4.440;2023-06-24T08:42:46;9.60;;;3.50;;
77872;SDS011;67068;52.116;4.440;2023-06-24T08:45:11;10.37;;;3.80;;
77872;SDS011;67068;52.116;4.440;2023-06-24T08:47:37;9.03;;;3.27;;
77872;SDS011;67068;52.116;4.440;2023-06-24T08:50:08;12.00;;;3.70;;
77872;SDS011;67068;52.116;4.440;2023-06-24T08:52:35;10.48;;;3.47;;
77872;SDS011;67068;52.116;4.440;2023-06-24T08:55:01;9.85;;;3.72;;
77872;SDS011;67068;52.116;4.440;2023-06-24T08:57:26;10.95;;;3.70;;
77872;SDS011;67068;52.116;4.440;2023-06-24T08:59:52;11.77;;;3.63;;
77872;SDS011;67068;52.116;4.440;2023-06-24T09:02:17;10.68;;;4.15;;
77872;SDS011;67068;52.116;4.440;2023-06-24T09:04:43;11.00;;;3.80;;
77872;SDS011;67068;52.116;4.440;2023-06-24T09:07:08;12.77;;;3.93;;
77872;SDS011;67068;52.116;4.440;2023-06-24T09:09:34;9.67;;;3.80;;
77872;SDS011;67068;52.116;4.440;2023-06-24T09:12:06;10.77;;;3.95;;
77872;SDS011;67068;52.116;4.440;2023-06-24T09:15:08;16.70;;;3.72;;
77872;SDS011;67068;52.116;4.440;2023-06-24T09:17:26;9.68;;;3.75;;
77872;SDS011;67068;52.116;4.440;2023-06-24T09:19:52;9.52;;;3.78;;
77872;SDS011;67068;52.116;4.440;2023-06-24T09:22:18;12.13;;;4.13;;
77872;SDS011;67068;52.116;4.440;2023-06-24T09:24:47;10.95;;;4.03;;
77872;SDS011;67068;52.116;4.440;2023-06-24T09:27:13;12.57;;;4.05;;
77872;SDS011;67068;52.116;4.440;2023-06-24T09:29:39;11.90;;;4.35;;
77872;SDS011;67068;52.116;4.440;2023-06-24T09:32:05;10.38;;;4.00;;
77872;SDS011;67068;52.116;4.440;2023-06-24T09:34:30;11.52;;;4.10;;
77872;SDS011;67068;52.116;4.440;2023-06-24T09:36:56;14.43;;;4.50;;
77872;SDS011;67068;52.116;4.440;2023-06-24T09:39:22;12.43;;;3.85;;
77872;SDS011;67068;52.116;4.440;2023-06-24T09:41:53;11.70;;;3.85;;
77872;SDS011;67068;52.116;4.440;2023-06-24T09:44:18;10.02;;;3.80;;
77872;SDS011;67068;52.116;4.440;2023-06-24T09:46:44;10.05;;;3.90;;
77872;SDS011;67068;52.116;4.440;2023-06-24T09:49:09;11.27;;;3.92;;
77872;SDS011;67068;52.116;4.440;2023-06-24T09:51:36;12.27;;;3.83;;
77872;SDS011;67068;52.116;4.440;2023-06-24T09:54:03;10.50;;;4.22;;
77872;SDS011;67068;52.116;4.440;2023-06-24T09:56:29;11.18;;;3.75;;
77872;SDS011;67068;52.116;4.440;2023-06-24T09:58:55;9.73;;;3.67;;
77872;SDS011;67068;52.116;4.440;2023-06-24T10:01:20;8.53;;;3.60;;
77872;SDS011;67068;52.116;4.440;2023-06-24T10:03:45;9.52;;;3.80;;
77872;SDS011;67068;52.116;4.440;2023-06-24T10:06:11;10.18;;;3.47;;
77872;SDS011;67068;52.116;4.440;2023-06-24T10:08:36;12.98;;;4.22;;
77872;SDS011;67068;52.116;4.440;2023-06-24T10:11:01;13.20;;;4.57;;
77872;SDS011;67068;52.116;4.440;2023-06-24T10:13:27;12.23;;;4.25;;
77872;SDS011;67068;52.116;4.440;2023-06-24T10:15:52;10.88;;;4.30;;
77872;SDS011;67068;52.116;4.440;2023-06-24T10:20:55;12.20;;;4.03;;
77872;SDS011;67068;52.116;4.440;2023-06-24T10:23:20;10.43;;;4.00;;
77872;SDS011;67068;52.116;4.440;2023-06-24T10:25:47;11.80;;;3.97;;
77872;SDS011;67068;52.116;4.440;2023-06-24T10:28:12;9.93;;;3.88;;
77872;SDS011;67068;52.116;4.440;2023-06-24T10:30:37;10.30;;;4.50;;
77872;SDS011;67068;52.116;4.440;2023-06-24T10:33:02;10.53;;;4.07;;
77872;SDS011;67068;52.116;4.440;2023-06-24T10:35:28;11.87;;;4.00;;
77872;SDS011;67068;52.116;4.440;2023-06-24T10:37:57;10.98;;;4.22;;
77872;SDS011;67068;52.116;4.440;2023-06-24T10:40:39;8.50;;;3.60;;
77872;SDS011;67068;52.116;4.440;2023-06-24T10:43:22;13.27;;;4.18;;
77872;SDS011;67068;52.116;4.440;2023-06-24T10:45:50;10.43;;;4.20;;
77872;SDS011;67068;52.116;4.440;2023-06-24T10:48:16;9.38;;;3.53;;
77872;SDS011;67068;52.116;4.440;2023-06-24T10:50:41;9.10;;;3.75;;
77872;SDS011;67068;52.116;4.440;2023-06-24T10:53:08;10.40;;;4.07;;
77872;SDS011;67068;52.116;4.440;2023-06-24T10:55:33;9.52;;;4.00;;
77872;SDS011;67068;52.116;4.440;2023-06-24T10:58:07;10.40;;;3.78;;
77872;SDS011;67068;52.116;4.440;2023-06-24T11:00:33;10.32;;;3.78;;
77872;SDS011;67068;52.116;4.440;2023-06-24T11:03:07;11.33;;;3.90;;
77872;SDS011;67068;52.116;4.440;2023-06-24T11:05:32;10.20;;;3.78;;
77872;SDS011;67068;52.116;4.440;2023-06-24T11:07:57;9.93;;;3.70;;
77872;SDS011;67068;52.116;4.440;2023-06-24T11:10:22;9.07;;;3.80;;
77872;SDS011;67068;52.116;4.440;2023-06-24T11:12:49;10.10;;;4.00;;
77872;SDS011;67068;52.116;4.440;2023-06-24T11:15:14;11.27;;;4.10;;
77872;SDS011;67068;52.116;4.440;2023-06-24T11:17:40;11.60;;;4.43;;
77872;SDS011;67068;52.116;4.440;2023-06-24T11:20:09;10.23;;;4.38;;
77872;SDS011;67068;52.116;4.440;2023-06-24T11:22:34;12.13;;;4.55;;
77872;SDS011;67068;52.116;4.440;2023-06-24T11:25:00;11.50;;;4.07;;
77872;SDS011;67068;52.116;4.440;2023-06-24T11:27:25;11.23;;;3.93;;
77872;SDS011;67068;52.116;4.440;2023-06-24T11:29:52;13.07;;;4.20;;
77872;SDS011;67068;52.116;4.440;2023-06-24T11:32:17;10.48;;;3.75;;
77872;SDS011;67068;52.116;4.440;2023-06-24T11:34:42;10.13;;;4.63;;
77872;SDS011;67068;52.116;4.440;2023-06-24T11:37:11;10.83;;;4.43;;
77872;SDS011;67068;52.116;4.440;2023-06-24T11:39:37;14.65;;;4.80;;
77872;SDS011;67068;52.116;4.440;2023-06-24T11:42:02;12.20;;;4.93;;
77872;SDS011;67068;52.116;4.440;2023-06-24T11:44:27;11.90;;;5.20;;
77872;SDS011;67068;52.116;4.440;2023-06-24T11:46:53;11.57;;;4.97;;
77872;SDS011;67068;52.116;4.440;2023-06-24T11:49:27;11.32;;;5.25;;
77872;SDS011;67068;52.116;4.440;2023-06-24T11:51:53;11.18;;;4.88;;
77872;SDS011;67068;52.116;4.440;2023-06-24T11:54:20;13.23;;;4.68;;
77872;SDS011;67068;52.116;4.440;2023-06-24T11:56:51;11.27;;;5.05;;
77872;SDS011;67068;52.116;4.440;2023-06-24T11:59:21;11.43;;;4.57;;
77872;SDS011;67068;52.116;4.440;2023-06-24T12:01:56;13.70;;;6.38;;
77872;SDS011;67068;52.116;4.440;2023-06-24T12:04:28;12.60;;;6.78;;
77872;SDS011;67068;52.116;4.440;2023-06-24T12:06:53;13.90;;;7.68;;
77872;SDS011;67068;52.116;4.440;2023-06-24T12:09:19;13.03;;;7.43;;
77872;SDS011;67068;52.116;4.440;2023-06-24T12:11:44;14.63;;;7.73;;
77872;SDS011;67068;52.116;4.440;2023-06-24T12:14:09;16.42;;;9.30;;
77872;SDS011;67068;52.116;4.440;2023-06-24T12:16:35;16.08;;;9.30;;
77872;SDS011;67068;52.116;4.440;2023-06-24T12:19:00;17.17;;;9.73;;
77872;SDS011;67068;52.116;4.440;2023-06-24T12:21:25;15.03;;;9.23;;
77872;SDS011;67068;52.116;4.440;2023-06-24T12:23:50;16.80;;;8.70;;
77872;SDS011;67068;52.116;4.440;2023-06-24T12:26:16;15.07;;;8.57;;
77872;SDS011;67068;52.116;4.440;2023-06-24T12:28:41;14.02;;;8.10;;
77872;SDS011;67068;52.116;4.440;2023-06-24T12:31:06;13.07;;;6.63;;
77872;SDS011;67068;52.116;4.440;2023-06-24T12:33:31;14.43;;;7.97;;
77872;SDS011;67068;52.116;4.440;2023-06-24T12:35:56;14.47;;;7.70;;
77872;SDS011;67068;52.116;4.440;2023-06-24T12:38:22;13.87;;;7.20;;
77872;SDS011;67068;52.116;4.440;2023-06-24T12:40:47;12.77;;;7.07;;
77872;SDS011;67068;52.116;4.440;2023-06-24T12:43:13;14.75;;;7.32;;
77872;SDS011;67068;52.116;4.440;2023-06-24T12:45:38;12.90;;;7.00;;
77872;SDS011;67068;52.116;4.440;2023-06-24T12:48:03;12.90;;;6.60;;
77872;SDS011;67068;52.116;4.440;2023-06-24T12:50:29;12.40;;;5.72;;
77872;SDS011;67068;52.116;4.440;2023-06-24T12:52:56;10.65;;;5.78;;
77872;SDS011;67068;52.116;4.440;2023-06-24T12:55:21;12.33;;;6.37;;
77872;SDS011;67068;52.116;4.440;2023-06-24T12:57:47;12.37;;;6.10;;
77872;SDS011;67068;52.116;4.440;2023-06-24T13:00:12;13.00;;;5.87;;
77872;SDS011;67068;52.116;4.440;2023-06-24T13:02:38;12.50;;;5.85;;
77872;SDS011;67068;52.116;4.440;2023-06-24T13:05:04;12.35;;;6.25;;
77872;SDS011;67068;52.116;4.440;2023-06-24T13:07:29;13.05;;;5.75;;
77872;SDS011;67068;52.116;4.440;2023-06-24T13:09:54;10.90;;;5.60;;
77872;SDS011;67068;52.116;4.440;2023-06-24T13:12:19;12.47;;;5.67;;
77872;SDS011;67068;52.116;4.440;2023-06-24T13:14:45;12.20;;;5.83;;
77872;SDS011;67068;52.116;4.440;2023-06-24T13:17:10;11.13;;;5.33;;
77872;SDS011;67068;52.116;4.440;2023-06-24T13:19:35;10.03;;;5.10;;
77872;SDS011;67068;52.116;4.440;2023-06-24T13:22:00;11.03;;;5.70;;
77872;SDS011;67068;52.116;4.440;2023-06-24T13:24:26;10.97;;;5.90;;
77872;SDS011;67068;52.116;4.440;2023-06-24T13:26:51;10.50;;;5.50;;
77872;SDS011;67068;52.116;4.440;2023-06-24T13:29:16;10.60;;;4.60;;
77872;SDS011;67068;52.116;4.440;2023-06-24T13:31:41;11.20;;;5.60;;
77872;SDS011;67068;52.116;4.440;2023-06-24T13:34:07;10.63;;;5.00;;
77872;SDS011;67068;52.116;4.440;2023-06-24T13:36:33;10.17;;;4.93;;
77872;SDS011;67068;52.116;4.440;2023-06-24T13:39:00;10.88;;;5.22;;
77872;SDS011;67068;52.116;4.440;2023-06-24T13:41:25;12.07;;;5.80;;
77872;SDS011;67068;52.116;4.440;2023-06-24T13:43:54;11.43;;;5.28;;
77872;SDS011;67068;52.116;4.440;2023-06-24T13:46:19;11.23;;;5.33;;
77872;SDS011;67068;52.116;4.440;2023-06-24T13:48:44;10.73;;;5.10;;
77872;SDS011;67068;52.116;4.440;2023-06-24T13:51:10;13.10;;;5.78;;
77872;SDS011;67068;52.116;4.440;2023-06-24T13:53:35;11.73;;;5.10;;
77872;SDS011;67068;52.116;4.440;2023-06-24T13:56:00;12.13;;;5.57;;
77872;SDS011;67068;52.116;4.440;2023-06-24T13:58:25;13.57;;;5.43;;
77872;SDS011;67068;52.116;4.440;2023-06-24T14:00:50;12.77;;;5.60;;
77872;SDS011;67068;52.116;4.440;2023-06-24T14:03:16;10.67;;;5.33;;
77872;SDS011;67068;52.116;4.440;2023-06-24T14:05:41;12.10;;;5.10;;
77872;SDS011;67068;52.116;4.440;2023-06-24T14:08:07;11.15;;;5.30;;
77872;SDS011;67068;52.116;4.440;2023-06-24T14:10:32;11.10;;;5.30;;
77872;SDS011;67068;52.116;4.440;2023-06-24T14:12:57;12.80;;;5.97;;
77872;SDS011;67068;52.116;4.440;2023-06-24T14:15:23;11.90;;;6.20;;
77872;SDS011;67068;52.116;4.440;2023-06-24T14:17:48;12.17;;;5.87;;
77872;SDS011;67068;52.116;4.440;2023-06-24T14:20:31;13.47;;;6.70;;
77872;SDS011;67068;52.116;4.440;2023-06-24T14:22:56;14.23;;;7.13;;
77872;SDS011;67068;52.116;4.440;2023-06-24T14:25:21;13.23;;;6.70;;
77872;SDS011;67068;52.116;4.440;2023-06-24T14:27:47;13.27;;;6.80;;
77872;SDS011;67068;52.116;4.440;2023-06-24T14:30:12;13.83;;;6.87;;
77872;SDS011;67068;52.116;4.440;2023-06-24T14:32:37;11.93;;;6.57;;
77872;SDS011;67068;52.116;4.440;2023-06-24T14:35:02;11.77;;;6.53;;
77872;SDS011;67068;52.116;4.440;2023-06-24T14:37:28;12.20;;;7.00;;
77872;SDS011;67068;52.116;4.440;2023-06-24T14:39:53;12.77;;;6.43;;
77872;SDS011;67068;52.116;4.440;2023-06-24T14:42:18;13.68;;;6.88;;
77872;SDS011;67068;52.116;4.440;2023-06-24T14:44:44;11.37;;;6.03;;
77872;SDS011;67068;52.116;4.440;2023-06-24T14:47:09;12.20;;;6.53;;
77872;SDS011;67068;52.116;4.440;2023-06-24T14:49:34;12.43;;;6.63;;
77872;SDS011;67068;52.116;4.440;2023-06-24T14:52:00;10.77;;;5.80;;